sensor_id;sensor_type;location;lat;lon;timestamp;P1;durP1;ratioP1;P2;durP2;ratioP2
69008;SDS011;56065;52.472;13.380;2023-03-21T00:01:48;13.20;;;7.63;;
69008;SDS011;56065;52.472;13.380;2023-03-21T00:04:15;14.48;;;7.60;;
69008;SDS011;56065;52.472;13.380;2023-03-21T00:06:41;14.30;;;7.60;;
69008;SDS011;56065;52.472;13.380;2023-03-21T00:09:07;13.87;;;7.50;;
69008;SDS011;56065;52.472;13.380;2023-03-21T00:11:32;13.27;;;7.22;;
69008;SDS011;56065;52.472;13.380;2023-03-21T00:13:58;12.83;;;7.33;;
69008;SDS011;56065;52.472;13.380;2023-03-21T00:16:26;14.57;;;7.30;;
69008;SDS011;56065;52.472;13.380;2023-03-21T00:18:54;13.45;;;7.53;;
69008;SDS011;56065;52.472;13.380;2023-03-21T00:21:21;12.05;;;7.28;;
69008;SDS011;56065;52.472;13.380;2023-03-21T00:23:52;13.27;;;8.38;;
69008;SDS011;56065;52.472;13.380;2023-03-21T00:26:18;14.32;;;8.23;;
69008;SDS011;56065;52.472;13.380;2023-03-21T00:28:46;13.83;;;8.33;;
69008;SDS011;56065;52.472;13.380;2023-03-21T00:31:12;14.18;;;8.02;;
69008;SDS011;56065;52.472;13.380;2023-03-21T00:33:38;15.23;;;8.00;;
69008;SDS011;56065;52.472;13.380;2023-03-21T00:36:04;16.00;;;8.30;;
69008;SDS011;56065;52.472;13.380;2023-03-21T00:38:30;15.45;;;9.00;;
69008;SDS011;56065;52.472;13.380;2023-03-21T00:40:56;13.87;;;8.30;;
69008;SDS011;56065;52.472;13.380;2023-03-21T00:43:21;14.73;;;8.50;;
69008;SDS011;56065;52.472;13.380;2023-03-21T00:45:47;13.68;;;8.48;;
69008;SDS011;56065;52.472;13.380;2023-03-21T00:48:14;16.85;;;8.73;;
69008;SDS011;56065;52.472;13.380;2023-03-21T00:50:39;15.47;;;8.90;;
69008;SDS011;56065;52.472;13.380;2023-03-21T00:53:06;15.13;;;8.75;;
69008;SDS011;56065;52.472;13.380;2023-03-21T00:55:31;17.63;;;9.47;;
69008;SDS011;56065;52.472;13.380;2023-03-21T00:57:57;17.13;;;8.95;;
69008;SDS011;56065;52.472;13.380;2023-03-21T01:00:22;17.80;;;9.57;;
69008;SDS011;56065;52.472;13.380;2023-03-21T01:02:48;20.77;;;9.20;;
69008;SDS011;56065;52.472;13.380;2023-03-21T01:05:23;15.40;;;9.13;;
69008;SDS011;56065;52.472;13.380;2023-03-21T01:08:12;17.48;;;9.30;;
69008;SDS011;56065;52.472;13.380;2023-03-21T01:10:39;19.48;;;9.95;;
69008;SDS011;56065;52.472;13.380;2023-03-21T01:13:06;16.60;;;9.07;;
69008;SDS011;56065;52.472;13.380;2023-03-21T01:15:33;16.67;;;9.27;;
69008;SDS011;56065;52.472;13.380;2023-03-21T01:17:59;16.40;;;8.73;;
69008;SDS011;56065;52.472;13.380;2023-03-21T01:20:24;19.13;;;10.10;;
69008;SDS011;56065;52.472;13.380;2023-03-21T01:22:50;17.57;;;9.67;;
69008;SDS011;56065;52.472;13.380;2023-03-21T01:25:15;16.17;;;9.40;;
69008;SDS011;56065;52.472;13.380;2023-03-21T01:27:41;18.47;;;9.50;;
69008;SDS011;56065;52.472;13.380;2023-03-21T01:30:06;17.90;;;9.93;;
69008;SDS011;56065;52.472;13.380;2023-03-21T01:32:32;18.37;;;10.43;;
69008;SDS011;56065;52.472;13.380;2023-03-21T01:34:58;17.77;;;10.52;;
69008;SDS011;56065;52.472;13.380;2023-03-21T01:37:23;20.20;;;11.47;;
69008;SDS011;56065;52.472;13.380;2023-03-21T01:39:50;21.17;;;11.50;;
69008;SDS011;56065;52.472;13.380;2023-03-21T01:42:16;20.20;;;12.37;;
69008;SDS011;56065;52.472;13.380;2023-03-21T01:44:55;21.03;;;12.40;;
69008;SDS011;56065;52.472;13.380;2023-03-21T01:47:22;20.13;;;12.35;;
69008;SDS011;56065;52.472;13.380;2023-03-21T01:49:48;25.35;;;13.98;;
69008;SDS011;56065;52.472;13.380;2023-03-21T01:52:17;21.33;;;11.93;;
69008;SDS011;56065;52.472;13.380;2023-03-21T01:54:44;25.92;;;14.18;;
69008;SDS011;56065;52.472;13.380;2023-03-21T01:57:12;23.70;;;13.95;;
69008;SDS011;56065;52.472;13.380;2023-03-21T01:59:46;22.00;;;13.13;;
69008;SDS011;56065;52.472;13.380;2023-03-21T02:02:16;23.48;;;14.02;;
69008;SDS011;56065;52.472;13.380;2023-03-21T02:04:47;22.90;;;13.33;;
69008;SDS011;56065;52.472;13.380;2023-03-21T02:07:16;24.92;;;14.32;;
69008;SDS011;56065;52.472;13.380;2023-03-21T02:09:49;23.90;;;14.35;;
69008;SDS011;56065;52.472;13.380;2023-03-21T02:12:17;25.58;;;15.52;;
69008;SDS011;56065;52.472;13.380;2023-03-21T02:14:43;27.33;;;15.88;;
69008;SDS011;56065;52.472;13.380;2023-03-21T02:22:40;33.20;;;15.60;;
69008;SDS011;56065;52.472;13.380;2023-03-21T02:39:23;28.63;;;15.30;;
69008;SDS011;56065;52.472;13.380;2023-03-21T02:42:15;28.15;;;15.70;;
69008;SDS011;56065;52.472;13.380;2023-03-21T02:50:09;27.85;;;15.10;;
69008;SDS011;56065;52.472;13.380;2023-03-21T02:52:39;26.83;;;15.98;;
69008;SDS011;56065;52.472;13.380;2023-03-21T02:55:10;27.10;;;15.48;;
69008;SDS011;56065;52.472;13.380;2023-03-21T02:57:40;26.50;;;15.70;;
69008;SDS011;56065;52.472;13.380;2023-03-21T03:00:15;31.55;;;16.17;;
69008;SDS011;56065;52.472;13.380;2023-03-21T03:02:45;30.10;;;15.55;;
69008;SDS011;56065;52.472;13.380;2023-03-21T03:05:21;28.38;;;15.10;;
69008;SDS011;56065;52.472;13.380;2023-03-21T03:07:52;26.37;;;14.10;;
69008;SDS011;56065;52.472;13.380;2023-03-21T03:10:52;28.50;;;14.85;;
69008;SDS011;56065;52.472;13.380;2023-03-21T03:19:06;32.33;;;15.75;;
69008;SDS011;56065;52.472;13.380;2023-03-21T03:27:18;31.88;;;16.27;;
69008;SDS011;56065;52.472;13.380;2023-03-21T03:29:51;32.10;;;15.73;;
69008;SDS011;56065;52.472;13.380;2023-03-21T03:32:21;27.92;;;14.95;;
69008;SDS011;56065;52.472;13.380;2023-03-21T03:34:52;29.40;;;14.80;;
69008;SDS011;56065;52.472;13.380;2023-03-21T03:37:20;28.95;;;15.10;;
69008;SDS011;56065;52.472;13.380;2023-03-21T03:39:57;28.70;;;15.23;;
69008;SDS011;56065;52.472;13.380;2023-03-21T03:42:30;29.25;;;15.23;;
69008;SDS011;56065;52.472;13.380;2023-03-21T03:45:00;29.23;;;14.50;;
69008;SDS011;56065;52.472;13.380;2023-03-21T03:50:13;32.58;;;16.92;;
69008;SDS011;56065;52.472;13.380;2023-03-21T03:52:48;33.55;;;17.10;;
69008;SDS011;56065;52.472;13.380;2023-03-21T03:55:18;33.55;;;16.60;;
69008;SDS011;56065;52.472;13.380;2023-03-21T03:57:46;28.92;;;16.67;;
69008;SDS011;56065;52.472;13.380;2023-03-21T04:00:13;29.33;;;14.63;;
69008;SDS011;56065;52.472;13.380;2023-03-21T04:02:41;31.40;;;15.82;;
69008;SDS011;56065;52.472;13.380;2023-03-21T04:05:07;33.10;;;16.77;;
69008;SDS011;56065;52.472;13.380;2023-03-21T04:07:33;30.10;;;15.85;;
69008;SDS011;56065;52.472;13.380;2023-03-21T04:09:58;28.37;;;15.07;;
69008;SDS011;56065;52.472;13.380;2023-03-21T04:12:24;31.87;;;15.67;;
69008;SDS011;56065;52.472;13.380;2023-03-21T04:14:49;29.48;;;15.05;;
69008;SDS011;56065;52.472;13.380;2023-03-21T04:17:15;27.77;;;14.67;;
69008;SDS011;56065;52.472;13.380;2023-03-21T04:19:41;29.98;;;15.32;;
69008;SDS011;56065;52.472;13.380;2023-03-21T04:22:07;27.93;;;15.40;;
69008;SDS011;56065;52.472;13.380;2023-03-21T04:24:32;30.50;;;16.10;;
69008;SDS011;56065;52.472;13.380;2023-03-21T04:27:01;30.23;;;16.17;;
69008;SDS011;56065;52.472;13.380;2023-03-21T04:29:27;29.73;;;14.97;;
69008;SDS011;56065;52.472;13.380;2023-03-21T04:31:53;27.75;;;15.60;;
69008;SDS011;56065;52.472;13.380;2023-03-21T04:34:19;27.97;;;14.33;;
69008;SDS011;56065;52.472;13.380;2023-03-21T04:36:47;27.88;;;13.75;;
69008;SDS011;56065;52.472;13.380;2023-03-21T04:39:14;30.02;;;13.65;;
69008;SDS011;56065;52.472;13.380;2023-03-21T04:41:44;29.23;;;14.38;;
69008;SDS011;56065;52.472;13.380;2023-03-21T04:44:10;26.85;;;14.55;;
69008;SDS011;56065;52.472;13.380;2023-03-21T04:46:37;31.03;;;15.73;;
69008;SDS011;56065;52.472;13.380;2023-03-21T04:49:03;32.20;;;15.38;;
69008;SDS011;56065;52.472;13.380;2023-03-21T04:51:29;32.83;;;15.10;;
69008;SDS011;56065;52.472;13.380;2023-03-21T04:53:55;32.60;;;14.82;;
69008;SDS011;56065;52.472;13.380;2023-03-21T04:56:26;31.20;;;15.38;;
69008;SDS011;56065;52.472;13.380;2023-03-21T04:58:56;29.90;;;13.93;;
69008;SDS011;56065;52.472;13.380;2023-03-21T05:01:23;32.08;;;14.27;;
69008;SDS011;56065;52.472;13.380;2023-03-21T05:03:49;26.07;;;12.67;;
69008;SDS011;56065;52.472;13.380;2023-03-21T05:06:15;28.33;;;15.18;;
69008;SDS011;56065;52.472;13.380;2023-03-21T05:08:40;27.23;;;14.00;;
69008;SDS011;56065;52.472;13.380;2023-03-21T05:11:06;30.80;;;14.80;;
69008;SDS011;56065;52.472;13.380;2023-03-21T05:13:31;32.27;;;16.07;;
69008;SDS011;56065;52.472;13.380;2023-03-21T05:15:57;28.55;;;13.73;;
69008;SDS011;56065;52.472;13.380;2023-03-21T05:18:22;28.50;;;14.60;;
69008;SDS011;56065;52.472;13.380;2023-03-21T05:20:51;31.52;;;15.38;;
69008;SDS011;56065;52.472;13.380;2023-03-21T05:23:18;31.00;;;14.88;;
69008;SDS011;56065;52.472;13.380;2023-03-21T05:25:44;27.50;;;13.30;;
69008;SDS011;56065;52.472;13.380;2023-03-21T05:28:09;35.90;;;15.65;;
69008;SDS011;56065;52.472;13.380;2023-03-21T05:30:34;33.10;;;14.33;;
69008;SDS011;56065;52.472;13.380;2023-03-21T05:33:00;31.13;;;14.93;;
69008;SDS011;56065;52.472;13.380;2023-03-21T05:35:25;31.13;;;15.13;;
69008;SDS011;56065;52.472;13.380;2023-03-21T05:37:51;31.03;;;14.73;;
69008;SDS011;56065;52.472;13.380;2023-03-21T05:40:17;30.27;;;14.63;;
69008;SDS011;56065;52.472;13.380;2023-03-21T05:42:43;33.67;;;15.63;;
69008;SDS011;56065;52.472;13.380;2023-03-21T05:45:09;34.83;;;15.60;;
69008;SDS011;56065;52.472;13.380;2023-03-21T05:47:35;29.00;;;14.27;;
69008;SDS011;56065;52.472;13.380;2023-03-21T05:50:00;30.57;;;14.70;;
69008;SDS011;56065;52.472;13.380;2023-03-21T05:52:25;34.27;;;16.27;;
69008;SDS011;56065;52.472;13.380;2023-03-21T05:54:52;30.37;;;15.70;;
69008;SDS011;56065;52.472;13.380;2023-03-21T05:57:17;32.80;;;15.30;;
69008;SDS011;56065;52.472;13.380;2023-03-21T05:59:43;30.58;;;15.52;;
69008;SDS011;56065;52.472;13.380;2023-03-21T06:02:08;36.20;;;15.93;;
69008;SDS011;56065;52.472;13.380;2023-03-21T06:04:34;34.67;;;17.13;;
69008;SDS011;56065;52.472;13.380;2023-03-21T06:06:59;30.75;;;15.43;;
69008;SDS011;56065;52.472;13.380;2023-03-21T06:09:25;33.33;;;16.17;;
69008;SDS011;56065;52.472;13.380;2023-03-21T06:11:51;33.13;;;16.63;;
69008;SDS011;56065;52.472;13.380;2023-03-21T06:14:19;32.55;;;15.23;;
69008;SDS011;56065;52.472;13.380;2023-03-21T06:16:45;36.45;;;15.80;;
69008;SDS011;56065;52.472;13.380;2023-03-21T06:19:10;29.47;;;14.33;;
69008;SDS011;56065;52.472;13.380;2023-03-21T06:21:36;34.33;;;15.47;;
69008;SDS011;56065;52.472;13.380;2023-03-21T06:24:01;33.97;;;16.07;;
69008;SDS011;56065;52.472;13.380;2023-03-21T06:26:27;34.97;;;16.88;;
69008;SDS011;56065;52.472;13.380;2023-03-21T06:28:52;34.23;;;15.07;;
69008;SDS011;56065;52.472;13.380;2023-03-21T06:31:18;36.00;;;15.88;;
69008;SDS011;56065;52.472;13.380;2023-03-21T06:33:46;32.17;;;14.33;;
69008;SDS011;56065;52.472;13.380;2023-03-21T06:36:12;31.40;;;14.90;;
69008;SDS011;56065;52.472;13.380;2023-03-21T06:38:37;30.77;;;14.67;;
69008;SDS011;56065;52.472;13.380;2023-03-21T06:41:03;31.90;;;14.43;;
69008;SDS011;56065;52.472;13.380;2023-03-21T06:43:30;33.30;;;16.97;;
69008;SDS011;56065;52.472;13.380;2023-03-21T06:45:56;34.38;;;15.70;;
69008;SDS011;56065;52.472;13.380;2023-03-21T06:48:22;31.80;;;15.90;;
69008;SDS011;56065;52.472;13.380;2023-03-21T06:50:48;33.60;;;16.20;;
69008;SDS011;56065;52.472;13.380;2023-03-21T06:53:14;33.38;;;16.27;;
69008;SDS011;56065;52.472;13.380;2023-03-21T06:55:39;37.53;;;17.40;;
69008;SDS011;56065;52.472;13.380;2023-03-21T06:58:05;35.42;;;17.20;;
69008;SDS011;56065;52.472;13.380;2023-03-21T07:00:30;39.23;;;17.90;;
69008;SDS011;56065;52.472;13.380;2023-03-21T07:02:56;40.53;;;17.03;;
69008;SDS011;56065;52.472;13.380;2023-03-21T07:05:22;31.83;;;14.50;;
69008;SDS011;56065;52.472;13.380;2023-03-21T07:07:48;35.10;;;16.70;;
69008;SDS011;56065;52.472;13.380;2023-03-21T07:10:13;36.27;;;16.60;;
69008;SDS011;56065;52.472;13.380;2023-03-21T07:12:39;39.87;;;17.40;;
69008;SDS011;56065;52.472;13.380;2023-03-21T07:15:05;35.00;;;16.92;;
69008;SDS011;56065;52.472;13.380;2023-03-21T07:17:31;35.30;;;17.00;;
69008;SDS011;56065;52.472;13.380;2023-03-21T07:19:57;33.08;;;15.35;;
69008;SDS011;56065;52.472;13.380;2023-03-21T07:22:23;34.47;;;16.15;;
69008;SDS011;56065;52.472;13.380;2023-03-21T07:24:48;36.60;;;16.57;;
69008;SDS011;56065;52.472;13.380;2023-03-21T07:27:14;38.10;;;17.42;;
69008;SDS011;56065;52.472;13.380;2023-03-21T07:29:41;41.47;;;18.10;;
69008;SDS011;56065;52.472;13.380;2023-03-21T07:32:08;40.95;;;18.15;;
69008;SDS011;56065;52.472;13.380;2023-03-21T07:34:34;38.75;;;18.20;;
69008;SDS011;56065;52.472;13.380;2023-03-21T07:36:59;39.80;;;15.63;;
69008;SDS011;56065;52.472;13.380;2023-03-21T07:39:25;38.42;;;17.77;;
69008;SDS011;56065;52.472;13.380;2023-03-21T07:41:51;36.93;;;17.47;;
69008;SDS011;56065;52.472;13.380;2023-03-21T07:44:19;38.15;;;17.67;;
69008;SDS011;56065;52.472;13.380;2023-03-21T07:46:45;35.58;;;17.23;;
69008;SDS011;56065;52.472;13.380;2023-03-21T07:49:10;33.00;;;15.93;;
69008;SDS011;56065;52.472;13.380;2023-03-21T07:51:35;37.90;;;17.93;;
69008;SDS011;56065;52.472;13.380;2023-03-21T07:54:01;35.23;;;16.90;;
69008;SDS011;56065;52.472;13.380;2023-03-21T07:56:27;36.07;;;17.40;;
69008;SDS011;56065;52.472;13.380;2023-03-21T07:58:52;36.60;;;17.58;;
69008;SDS011;56065;52.472;13.380;2023-03-21T08:01:18;34.93;;;16.60;;
69008;SDS011;56065;52.472;13.380;2023-03-21T08:03:43;33.35;;;16.08;;
69008;SDS011;56065;52.472;13.380;2023-03-21T08:06:09;33.10;;;16.03;;
69008;SDS011;56065;52.472;13.380;2023-03-21T08:08:35;32.97;;;16.23;;
69008;SDS011;56065;52.472;13.380;2023-03-21T08:11:00;32.63;;;15.03;;
69008;SDS011;56065;52.472;13.380;2023-03-21T08:13:25;37.23;;;18.40;;
69008;SDS011;56065;52.472;13.380;2023-03-21T08:15:51;36.28;;;16.38;;
69008;SDS011;56065;52.472;13.380;2023-03-21T08:18:17;37.93;;;16.53;;
69008;SDS011;56065;52.472;13.380;2023-03-21T08:20:42;31.67;;;14.17;;
69008;SDS011;56065;52.472;13.380;2023-03-21T08:23:07;33.83;;;14.47;;
69008;SDS011;56065;52.472;13.380;2023-03-21T08:25:33;33.23;;;15.87;;
69008;SDS011;56065;52.472;13.380;2023-03-21T08:27:58;34.57;;;15.83;;
69008;SDS011;56065;52.472;13.380;2023-03-21T08:30:24;30.75;;;14.43;;
69008;SDS011;56065;52.472;13.380;2023-03-21T08:32:54;30.35;;;15.00;;
69008;SDS011;56065;52.472;13.380;2023-03-21T08:35:21;30.67;;;14.13;;
69008;SDS011;56065;52.472;13.380;2023-03-21T08:37:47;32.45;;;14.57;;
69008;SDS011;56065;52.472;13.380;2023-03-21T08:40:13;30.80;;;13.67;;
69008;SDS011;56065;52.472;13.380;2023-03-21T08:42:40;36.55;;;16.38;;
69008;SDS011;56065;52.472;13.380;2023-03-21T08:45:07;35.97;;;15.15;;
69008;SDS011;56065;52.472;13.380;2023-03-21T08:47:34;31.37;;;15.17;;
69008;SDS011;56065;52.472;13.380;2023-03-21T08:49:59;34.00;;;14.90;;
69008;SDS011;56065;52.472;13.380;2023-03-21T08:52:25;32.00;;;13.10;;
69008;SDS011;56065;52.472;13.380;2023-03-21T08:54:53;28.83;;;13.77;;
69008;SDS011;56065;52.472;13.380;2023-03-21T08:57:19;28.90;;;13.57;;
69008;SDS011;56065;52.472;13.380;2023-03-21T08:59:44;28.70;;;13.90;;
69008;SDS011;56065;52.472;13.380;2023-03-21T09:02:14;31.88;;;15.52;;
69008;SDS011;56065;52.472;13.380;2023-03-21T09:04:40;32.92;;;15.77;;
69008;SDS011;56065;52.472;13.380;2023-03-21T09:07:07;33.93;;;15.83;;
69008;SDS011;56065;52.472;13.380;2023-03-21T09:09:35;32.42;;;14.30;;
69008;SDS011;56065;52.472;13.380;2023-03-21T09:12:01;32.67;;;15.02;;
69008;SDS011;56065;52.472;13.380;2023-03-21T09:14:26;30.70;;;13.83;;
69008;SDS011;56065;52.472;13.380;2023-03-21T09:16:52;27.80;;;13.00;;
69008;SDS011;56065;52.472;13.380;2023-03-21T09:19:17;28.58;;;12.82;;
69008;SDS011;56065;52.472;13.380;2023-03-21T09:21:43;31.70;;;14.23;;
69008;SDS011;56065;52.472;13.380;2023-03-21T09:24:09;29.07;;;14.17;;
69008;SDS011;56065;52.472;13.380;2023-03-21T09:26:36;37.50;;;15.05;;
69008;SDS011;56065;52.472;13.380;2023-03-21T09:29:02;29.25;;;13.40;;
69008;SDS011;56065;52.472;13.380;2023-03-21T09:31:30;34.60;;;14.52;;
69008;SDS011;56065;52.472;13.380;2023-03-21T09:33:56;26.80;;;12.32;;
69008;SDS011;56065;52.472;13.380;2023-03-21T09:36:22;30.27;;;13.70;;
69008;SDS011;56065;52.472;13.380;2023-03-21T09:38:49;28.00;;;11.85;;
69008;SDS011;56065;52.472;13.380;2023-03-21T09:47:04;31.48;;;13.38;;
69008;SDS011;56065;52.472;13.380;2023-03-21T09:49:39;26.10;;;13.00;;
69008;SDS011;56065;52.472;13.380;2023-03-21T09:52:12;25.95;;;12.15;;
69008;SDS011;56065;52.472;13.380;2023-03-21T09:54:43;29.88;;;14.05;;
69008;SDS011;56065;52.472;13.380;2023-03-21T09:59:53;30.63;;;14.60;;
69008;SDS011;56065;52.472;13.380;2023-03-21T10:05:21;28.00;;;14.13;;
69008;SDS011;56065;52.472;13.380;2023-03-21T10:07:57;29.55;;;14.25;;
69008;SDS011;56065;52.472;13.380;2023-03-21T10:10:31;29.60;;;13.18;;
69008;SDS011;56065;52.472;13.380;2023-03-21T10:13:00;30.43;;;14.10;;
69008;SDS011;56065;52.472;13.380;2023-03-21T10:15:27;28.20;;;15.15;;
69008;SDS011;56065;52.472;13.380;2023-03-21T10:17:59;27.67;;;12.88;;
69008;SDS011;56065;52.472;13.380;2023-03-21T10:20:35;27.03;;;13.53;;
69008;SDS011;56065;52.472;13.380;2023-03-21T10:23:06;28.50;;;12.93;;
69008;SDS011;56065;52.472;13.380;2023-03-21T10:25:39;26.20;;;13.50;;
69008;SDS011;56065;52.472;13.380;2023-03-21T10:28:07;26.35;;;12.38;;
69008;SDS011;56065;52.472;13.380;2023-03-21T10:30:39;25.73;;;12.15;;
69008;SDS011;56065;52.472;13.380;2023-03-21T10:33:10;25.37;;;12.37;;
69008;SDS011;56065;52.472;13.380;2023-03-21T10:35:40;27.67;;;13.32;;
69008;SDS011;56065;52.472;13.380;2023-03-21T10:38:14;28.75;;;12.57;;
69008;SDS011;56065;52.472;13.380;2023-03-21T10:40:42;23.88;;;11.35;;
69008;SDS011;56065;52.472;13.380;2023-03-21T10:43:29;27.60;;;13.13;;
69008;SDS011;56065;52.472;13.380;2023-03-21T10:46:20;24.05;;;12.18;;
69008;SDS011;56065;52.472;13.380;2023-03-21T10:48:49;28.48;;;12.60;;
69008;SDS011;56065;52.472;13.380;2023-03-21T10:51:20;25.60;;;12.70;;
69008;SDS011;56065;52.472;13.380;2023-03-21T10:54:11;26.67;;;12.05;;
69008;SDS011;56065;52.472;13.380;2023-03-21T10:56:42;25.88;;;13.00;;
69008;SDS011;56065;52.472;13.380;2023-03-21T10:59:16;25.42;;;12.73;;
69008;SDS011;56065;52.472;13.380;2023-03-21T11:01:48;24.65;;;12.75;;
69008;SDS011;56065;52.472;13.380;2023-03-21T11:04:17;24.30;;;12.17;;
69008;SDS011;56065;52.472;13.380;2023-03-21T11:06:49;25.77;;;12.88;;
69008;SDS011;56065;52.472;13.380;2023-03-21T11:09:17;25.65;;;11.45;;
69008;SDS011;56065;52.472;13.380;2023-03-21T11:11:50;23.98;;;12.82;;
69008;SDS011;56065;52.472;13.380;2023-03-21T11:14:25;23.58;;;11.52;;
69008;SDS011;56065;52.472;13.380;2023-03-21T11:17:21;23.47;;;11.33;;
69008;SDS011;56065;52.472;13.380;2023-03-21T11:19:47;26.23;;;12.88;;
69008;SDS011;56065;52.472;13.380;2023-03-21T11:22:15;23.25;;;11.20;;
69008;SDS011;56065;52.472;13.380;2023-03-21T11:24:43;24.67;;;11.95;;
69008;SDS011;56065;52.472;13.380;2023-03-21T11:27:15;22.30;;;11.77;;
69008;SDS011;56065;52.472;13.380;2023-03-21T11:29:47;22.37;;;11.60;;
69008;SDS011;56065;52.472;13.380;2023-03-21T11:32:22;21.10;;;10.98;;
69008;SDS011;56065;52.472;13.380;2023-03-21T11:34:53;21.50;;;11.30;;
69008;SDS011;56065;52.472;13.380;2023-03-21T11:39:59;19.98;;;10.07;;
69008;SDS011;56065;52.472;13.380;2023-03-21T11:42:54;21.80;;;11.27;;
69008;SDS011;56065;52.472;13.380;2023-03-21T11:47:47;25.27;;;11.67;;
69008;SDS011;56065;52.472;13.380;2023-03-21T11:50:28;24.25;;;12.43;;
69008;SDS011;56065;52.472;13.380;2023-03-21T11:55:53;21.17;;;11.23;;
69008;SDS011;56065;52.472;13.380;2023-03-21T12:01:57;21.67;;;11.00;;
69008;SDS011;56065;52.472;13.380;2023-03-21T12:06:55;21.93;;;10.90;;
69008;SDS011;56065;52.472;13.380;2023-03-21T12:09:41;21.23;;;11.07;;
69008;SDS011;56065;52.472;13.380;2023-03-21T12:22:54;21.50;;;10.07;;
69008;SDS011;56065;52.472;13.380;2023-03-21T12:25:41;19.23;;;10.48;;
69008;SDS011;56065;52.472;13.380;2023-03-21T12:33:55;19.40;;;10.63;;
69008;SDS011;56065;52.472;13.380;2023-03-21T12:37:02;20.00;;;9.80;;
69008;SDS011;56065;52.472;13.380;2023-03-21T12:39:47;22.35;;;9.75;;
69008;SDS011;56065;52.472;13.380;2023-03-21T12:45:37;18.63;;;9.52;;
69008;SDS011;56065;52.472;13.380;2023-03-21T12:48:10;16.53;;;8.73;;
69008;SDS011;56065;52.472;13.380;2023-03-21T12:50:37;16.30;;;8.63;;
69008;SDS011;56065;52.472;13.380;2023-03-21T12:53:13;20.10;;;9.60;;
69008;SDS011;56065;52.472;13.380;2023-03-21T12:56:06;19.40;;;8.50;;
69008;SDS011;56065;52.472;13.380;2023-03-21T12:58:43;16.52;;;8.90;;
69008;SDS011;56065;52.472;13.380;2023-03-21T13:01:12;16.98;;;8.27;;
69008;SDS011;56065;52.472;13.380;2023-03-21T13:03:40;18.85;;;8.77;;
69008;SDS011;56065;52.472;13.380;2023-03-21T13:06:09;16.83;;;8.70;;
69008;SDS011;56065;52.472;13.380;2023-03-21T13:09:01;16.33;;;8.90;;
69008;SDS011;56065;52.472;13.380;2023-03-21T13:11:32;16.48;;;8.65;;
69008;SDS011;56065;52.472;13.380;2023-03-21T13:14:14;15.45;;;7.93;;
69008;SDS011;56065;52.472;13.380;2023-03-21T13:16:48;16.33;;;7.53;;
69008;SDS011;56065;52.472;13.380;2023-03-21T13:21:49;14.15;;;7.50;;
69008;SDS011;56065;52.472;13.380;2023-03-21T13:24:31;14.02;;;6.68;;
69008;SDS011;56065;52.472;13.380;2023-03-21T13:27:04;16.45;;;7.80;;
69008;SDS011;56065;52.472;13.380;2023-03-21T13:32:15;12.93;;;6.55;;
69008;SDS011;56065;52.472;13.380;2023-03-21T13:34:58;15.15;;;7.78;;
69008;SDS011;56065;52.472;13.380;2023-03-21T13:37:31;14.60;;;7.50;;
69008;SDS011;56065;52.472;13.380;2023-03-21T13:40:00;14.73;;;7.60;;
69008;SDS011;56065;52.472;13.380;2023-03-21T13:42:33;13.73;;;6.73;;
69008;SDS011;56065;52.472;13.380;2023-03-21T13:44:59;13.05;;;7.30;;
69008;SDS011;56065;52.472;13.380;2023-03-21T13:47:33;14.55;;;7.10;;
69008;SDS011;56065;52.472;13.380;2023-03-21T13:50:12;14.38;;;6.97;;
69008;SDS011;56065;52.472;13.380;2023-03-21T13:52:41;13.90;;;7.20;;
69008;SDS011;56065;52.472;13.380;2023-03-21T13:55:29;16.50;;;7.13;;
69008;SDS011;56065;52.472;13.380;2023-03-21T13:58:03;14.60;;;7.97;;
69008;SDS011;56065;52.472;13.380;2023-03-21T14:03:48;12.85;;;6.78;;
69008;SDS011;56065;52.472;13.380;2023-03-21T14:06:14;14.87;;;6.93;;
69008;SDS011;56065;52.472;13.380;2023-03-21T14:08:43;14.63;;;7.22;;
69008;SDS011;56065;52.472;13.380;2023-03-21T14:11:15;12.93;;;6.43;;
69008;SDS011;56065;52.472;13.380;2023-03-21T14:13:43;15.73;;;7.10;;
69008;SDS011;56065;52.472;13.380;2023-03-21T14:16:14;14.15;;;6.72;;
69008;SDS011;56065;52.472;13.380;2023-03-21T14:18:45;11.82;;;6.68;;
69008;SDS011;56065;52.472;13.380;2023-03-21T14:21:15;12.20;;;6.32;;
69008;SDS011;56065;52.472;13.380;2023-03-21T14:23:45;17.40;;;6.60;;
69008;SDS011;56065;52.472;13.380;2023-03-21T14:26:11;14.93;;;6.57;;
69008;SDS011;56065;52.472;13.380;2023-03-21T14:28:38;13.50;;;6.40;;
69008;SDS011;56065;52.472;13.380;2023-03-21T14:31:11;12.33;;;7.33;;
69008;SDS011;56065;52.472;13.380;2023-03-21T14:34:01;13.32;;;6.68;;
69008;SDS011;56065;52.472;13.380;2023-03-21T14:36:30;11.32;;;6.28;;
69008;SDS011;56065;52.472;13.380;2023-03-21T14:39:06;11.65;;;6.75;;
69008;SDS011;56065;52.472;13.380;2023-03-21T14:41:41;11.82;;;6.70;;
69008;SDS011;56065;52.472;13.380;2023-03-21T14:49:28;13.53;;;6.53;;
69008;SDS011;56065;52.472;13.380;2023-03-21T14:51:57;14.55;;;7.20;;
69008;SDS011;56065;52.472;13.380;2023-03-21T14:54:25;12.75;;;6.72;;
69008;SDS011;56065;52.472;13.380;2023-03-21T14:57:01;12.57;;;6.82;;
69008;SDS011;56065;52.472;13.380;2023-03-21T14:59:31;12.77;;;6.10;;
69008;SDS011;56065;52.472;13.380;2023-03-21T15:02:00;13.52;;;6.22;;
69008;SDS011;56065;52.472;13.380;2023-03-21T15:04:28;13.52;;;6.40;;
69008;SDS011;56065;52.472;13.380;2023-03-21T15:06:59;11.68;;;5.85;;
69008;SDS011;56065;52.472;13.380;2023-03-21T15:09:29;11.80;;;6.30;;
69008;SDS011;56065;52.472;13.380;2023-03-21T15:11:57;13.83;;;6.23;;
69008;SDS011;56065;52.472;13.380;2023-03-21T15:14:27;11.80;;;6.40;;
69008;SDS011;56065;52.472;13.380;2023-03-21T15:16:56;12.95;;;6.80;;
69008;SDS011;56065;52.472;13.380;2023-03-21T15:19:26;12.95;;;6.25;;
69008;SDS011;56065;52.472;13.380;2023-03-21T15:21:55;13.95;;;6.43;;
69008;SDS011;56065;52.472;13.380;2023-03-21T15:24:28;13.57;;;5.90;;
69008;SDS011;56065;52.472;13.380;2023-03-21T15:27:03;11.73;;;5.55;;
69008;SDS011;56065;52.472;13.380;2023-03-21T15:29:31;13.05;;;5.93;;
69008;SDS011;56065;52.472;13.380;2023-03-21T15:31:58;12.95;;;6.30;;
69008;SDS011;56065;52.472;13.380;2023-03-21T15:34:27;12.05;;;5.95;;
69008;SDS011;56065;52.472;13.380;2023-03-21T15:37:00;12.67;;;5.57;;
69008;SDS011;56065;52.472;13.380;2023-03-21T15:39:29;11.90;;;5.72;;
69008;SDS011;56065;52.472;13.380;2023-03-21T15:41:58;11.20;;;5.90;;
69008;SDS011;56065;52.472;13.380;2023-03-21T15:44:44;13.03;;;6.10;;
69008;SDS011;56065;52.472;13.380;2023-03-21T15:47:13;15.27;;;6.10;;
69008;SDS011;56065;52.472;13.380;2023-03-21T15:49:39;11.73;;;5.47;;
69008;SDS011;56065;52.472;13.380;2023-03-21T15:54:46;12.27;;;6.13;;
69008;SDS011;56065;52.472;13.380;2023-03-21T15:57:27;15.40;;;7.45;;
69008;SDS011;56065;52.472;13.380;2023-03-21T16:00:03;10.90;;;6.50;;
69008;SDS011;56065;52.472;13.380;2023-03-21T16:02:39;12.25;;;6.40;;
69008;SDS011;56065;52.472;13.380;2023-03-21T16:08:37;13.18;;;7.18;;
69008;SDS011;56065;52.472;13.380;2023-03-21T16:10:44;13.70;;;8.00;;